Time;durP1;ratioP1;P1;durP2;ratioP2;P2;SDS_P1;SDS_P2;PMS_P1;PMS_P2;Temp;Humidity;BMP_temperature;BMP_pressure;BME280_temperature;BME280_humidity;BME280_pressure;Samples;Min_cycle;Max_cycle;Signal;HPM_P1;HPM_P2
2022/05/06 00:02:10;;;;;;;8.20;2.25;;;;;;;;;;5020644;28;20248;-72
2022/05/06 00:04:36;;;;;;;2.10;1.90;;;;;;;;;;5023141;28;20036;-72
2022/05/06 00:07:01;;;;;;;6.22;1.65;;;;;;;;;;5005829;28;20538;-72
2022/05/06 00:09:27;;;;;;;3.33;1.77;;;;;;;;;;5023690;28;20045;-73
2022/05/06 00:11:52;;;;;;;2.35;1.63;;;;;;;;;;5005026;28;20052;-73
2022/05/06 00:14:18;;;;;;;5.75;1.48;;;;;;;;;;5022893;28;20371;-73
2022/05/06 00:16:44;;;;;;;3.90;1.80;;;;;;;;;;5023315;28;20037;-73
2022/05/06 00:19:09;;;;;;;3.30;1.80;;;;;;;;;;5023783;28;20391;-73
2022/05/06 00:21:36;;;;;;;4.40;2.00;;;;;;;;;;5023457;28;20025;-73
2022/05/06 00:24:02;;;;;;;4.32;1.63;;;;;;;;;;5022625;28;20056;-74
2022/05/06 00:26:28;;;;;;;2.97;1.80;;;;;;;;;;5023249;28;20475;-73
2022/05/06 00:28:53;;;;;;;5.13;1.80;;;;;;;;;;5023127;28;20033;-73
2022/05/06 00:31:19;;;;;;;3.13;2.08;;;;;;;;;;5023248;28;20044;-73
2022/05/06 00:33:47;;;;;;;3.03;2.13;;;;;;;;;;5022725;28;20128;-73
2022/05/06 00:36:14;;;;;;;1.45;1.35;;;;;;;;;;5005069;28;20111;-73
2022/05/06 00:38:40;;;;;;;4.60;2.03;;;;;;;;;;5023287;28;20049;-74
2022/05/06 00:41:08;;;;;;;4.32;2.00;;;;;;;;;;5005115;28;20467;-74
2022/05/06 00:43:33;;;;;;;6.07;2.28;;;;;;;;;;5004884;28;20122;-75
2022/05/06 00:45:59;;;;;;;2.67;2.00;;;;;;;;;;5003854;28;20037;-74
2022/05/06 00:48:30;;;;;;;5.88;2.30;;;;;;;;;;5022978;28;20029;-73
2022/05/06 00:50:58;;;;;;;1.97;1.70;;;;;;;;;;5004650;28;20045;-74
2022/05/06 00:53:24;;;;;;;2.25;2.05;;;;;;;;;;5022706;28;20295;-74
2022/05/06 00:55:51;;;;;;;2.47;2.28;;;;;;;;;;5003944;28;20092;-74
2022/05/06 00:58:17;;;;;;;3.40;2.17;;;;;;;;;;5004945;28;20030;-73
2022/05/06 01:00:43;;;;;;;4.55;1.92;;;;;;;;;;5002057;28;20486;-74
2022/05/06 01:03:09;;;;;;;3.65;2.25;;;;;;;;;;5004560;28;20116;-73
2022/05/06 01:05:35;;;;;;;3.13;2.38;;;;;;;;;;5004167;28;20998;-74
2022/05/06 01:08:02;;;;;;;5.35;2.50;;;;;;;;;;5021717;28;20044;-73
2022/05/06 01:10:27;;;;;;;5.45;2.60;;;;;;;;;;5022206;28;20051;-73
2022/05/06 01:12:53;;;;;;;4.45;2.20;;;;;;;;;;5004447;28;20505;-74
2022/05/06 01:15:27;;;;;;;4.20;1.90;;;;;;;;;;5003934;28;20034;-74
2022/05/06 01:17:58;;;;;;;3.85;2.28;;;;;;;;;;5003452;28;20033;-73
2022/05/06 01:20:25;;;;;;;4.15;2.13;;;;;;;;;;5005355;28;20033;-73
2022/05/06 01:22:56;;;;;;;3.55;2.25;;;;;;;;;;5022099;28;20047;-74
2022/05/06 01:25:22;;;;;;;3.10;2.45;;;;;;;;;;5021890;28;20908;-73
2022/05/06 01:28:02;;;;;;;3.00;2.00;;;;;;;;;;5004460;28;20037;-74
2022/05/06 01:30:32;;;;;;;1.80;1.70;;;;;;;;;;5003640;28;20030;-73
2022/05/06 01:32:59;;;;;;;3.15;2.25;;;;;;;;;;5003776;28;20830;-73
2022/05/06 01:35:27;;;;;;;2.40;2.20;;;;;;;;;;4997845;28;20465;-73
2022/05/06 01:37:56;;;;;;;2.85;2.30;;;;;;;;;;5004135;28;20037;-74
2022/05/06 01:40:24;;;;;;;4.22;2.17;;;;;;;;;;5002987;28;20163;-74
2022/05/06 01:42:59;;;;;;;5.43;2.33;;;;;;;;;;5003727;28;20520;-74
2022/05/06 01:45:29;;;;;;;1.95;1.85;;;;;;;;;;5002974;28;20037;-74
2022/05/06 01:47:58;;;;;;;2.83;2.17;;;;;;;;;;5003844;28;20494;-74
2022/05/06 01:50:26;;;;;;;2.80;2.00;;;;;;;;;;5003334;28;20041;-74
2022/05/06 01:52:55;;;;;;;3.33;2.20;;;;;;;;;;5003571;28;20033;-74
2022/05/06 01:55:22;;;;;;;2.83;2.30;;;;;;;;;;5002264;28;20044;-74
2022/05/06 01:58:00;;;;;;;2.60;2.13;;;;;;;;;;5003928;28;20156;-74
2022/05/06 02:00:29;;;;;;;1.88;1.75;;;;;;;;;;5003154;28;20049;-74
2022/05/06 02:02:56;;;;;;;2.30;2.10;;;;;;;;;;5000468;28;20044;-74
2022/05/06 02:05:37;;;;;;;2.65;2.00;;;;;;;;;;5003015;28;20036;-74
2022/05/06 02:08:03;;;;;;;1.92;1.73;;;;;;;;;;5021487;28;20616;-73
2022/05/06 02:10:31;;;;;;;2.17;1.83;;;;;;;;;;5003487;28;20041;-74
2022/05/06 02:13:00;;;;;;;2.38;2.17;;;;;;;;;;5002700;28;20092;-75
2022/05/06 02:15:35;;;;;;;2.78;2.10;;;;;;;;;;5020393;28;20030;-75
2022/05/06 02:18:19;;;;;;;6.45;2.40;;;;;;;;;;5020984;28;20115;-75
2022/05/06 02:21:14;;;;;;;2.35;2.15;;;;;;;;;;4949787;28;20472;-75
2022/05/06 02:23:42;;;;;;;2.33;2.00;;;;;;;;;;5020775;28;20529;-74
2022/05/06 02:26:23;;;;;;;2.88;1.80;;;;;;;;;;5002692;28;20029;-75
2022/05/06 02:28:55;;;;;;;5.10;2.63;;;;;;;;;;5003118;28;20037;-74
2022/05/06 02:34:15;;;;;;;2.33;2.15;;;;;;;;;;5018887;28;20075;-74
2022/05/06 02:36:41;;;;;;;2.25;2.05;;;;;;;;;;5002493;28;20037;-74
2022/05/06 02:39:07;;;;;;;3.08;2.10;;;;;;;;;;5003196;28;20034;-74
2022/05/06 02:41:34;;;;;;;2.65;2.05;;;;;;;;;;5002801;28;20021;-74
2022/05/06 02:43:59;;;;;;;2.33;2.13;;;;;;;;;;5003307;28;20486;-74
2022/05/06 02:46:35;;;;;;;2.40;2.20;;;;;;;;;;5001699;28;20035;-74
2022/05/06 02:49:01;;;;;;;2.35;2.15;;;;;;;;;;5003012;28;20150;-74
2022/05/06 02:51:28;;;;;;;2.47;2.10;;;;;;;;;;5003182;28;20053;-74
2022/05/06 02:53:57;;;;;;;2.10;1.80;;;;;;;;;;5003079;28;20040;-74
2022/05/06 02:56:29;;;;;;;2.92;1.98;;;;;;;;;;5001978;28;20045;-74
2022/05/06 02:58:58;;;;;;;5.15;1.98;;;;;;;;;;5003200;28;20044;-74
2022/05/06 03:01:28;;;;;;;2.20;2.00;;;;;;;;;;5000406;28;20029;-73
2022/05/06 03:03:56;;;;;;;3.83;2.08;;;;;;;;;;5003545;28;20513;-74
2022/05/06 03:06:22;;;;;;;3.05;2.15;;;;;;;;;;5004662;28;20059;-73
2022/05/06 03:08:49;;;;;;;4.28;2.42;;;;;;;;;;5023992;28;20033;-74
2022/05/06 03:11:19;;;;;;;2.80;2.50;;;;;;;;;;5006984;28;20056;-74
2022/05/06 03:13:51;;;;;;;2.92;2.63;;;;;;;;;;5006945;28;20026;-73
2022/05/06 03:16:20;;;;;;;3.42;2.67;;;;;;;;;;5006198;28;20124;-75
2022/05/06 03:18:46;;;;;;;3.83;2.50;;;;;;;;;;5005643;28;20573;-73
2022/05/06 03:21:11;;;;;;;3.17;2.53;;;;;;;;;;5006939;28;20564;-74
2022/05/06 03:23:37;;;;;;;4.03;3.15;;;;;;;;;;5006575;28;20277;-73
2022/05/06 03:26:02;;;;;;;3.88;2.90;;;;;;;;;;5005847;28;20037;-74
2022/05/06 03:28:29;;;;;;;3.15;2.85;;;;;;;;;;5024206;28;20155;-74
2022/05/06 03:30:55;;;;;;;4.53;3.00;;;;;;;;;;5023308;28;20041;-74
2022/05/06 03:33:42;;;;;;;5.50;2.88;;;;;;;;;;5024395;28;20434;-74
2022/05/06 03:36:18;;;;;;;5.25;4.05;;;;;;;;;;5004347;28;20029;-75
2022/05/06 03:38:51;;;;;;;8.63;4.40;;;;;;;;;;5006309;28;20429;-75
2022/05/06 03:41:17;;;;;;;4.20;3.80;;;;;;;;;;5005353;28;20112;-74
2022/05/06 03:43:45;;;;;;;4.07;3.15;;;;;;;;;;5004780;28;20037;-74
2022/05/06 03:46:20;;;;;;;3.95;3.60;;;;;;;;;;5021564;28;20033;-74
2022/05/06 03:48:45;;;;;;;4.10;3.70;;;;;;;;;;5005985;28;20087;-74
2022/05/06 03:51:22;;;;;;;4.03;3.38;;;;;;;;;;5005245;28;20098;-74
2022/05/06 03:53:58;;;;;;;3.80;3.40;;;;;;;;;;5006053;28;20033;-74
2022/05/06 03:56:25;;;;;;;3.95;2.75;;;;;;;;;;5004568;28;20168;-74
2022/05/06 04:01:42;;;;;;;3.85;3.20;;;;;;;;;;4942489;28;20054;-74
2022/05/06 04:04:14;;;;;;;3.83;2.97;;;;;;;;;;4944131;28;20057;-74
2022/05/06 04:06:40;;;;;;;3.38;2.90;;;;;;;;;;4946884;28;21079;-74
2022/05/06 04:09:06;;;;;;;3.30;3.00;;;;;;;;;;4940478;28;20118;-73
2022/05/06 04:11:36;;;;;;;7.00;3.38;;;;;;;;;;4932975;29;20107;-73
2022/05/06 04:14:05;;;;;;;3.42;3.13;;;;;;;;;;4930784;29;20027;-73
2022/05/06 04:16:34;;;;;;;4.45;3.30;;;;;;;;;;4951019;28;20053;-73
2022/05/06 04:19:03;;;;;;;3.95;3.55;;;;;;;;;;4933002;28;20059;-73
2022/05/06 04:24:15;;;;;;;3.67;3.38;;;;;;;;;;4939694;29;20485;-73
2022/05/06 04:26:42;;;;;;;5.35;3.70;;;;;;;;;;4931775;29;20045;-73
2022/05/06 04:29:08;;;;;;;4.47;4.07;;;;;;;;;;4944853;28;20035;-73
2022/05/06 04:31:35;;;;;;;4.60;4.18;;;;;;;;;;4947315;28;20045;-73
2022/05/06 04:34:07;;;;;;;4.95;4.45;;;;;;;;;;4930035;29;20024;-74
2022/05/06 04:36:38;;;;;;;4.72;4.22;;;;;;;;;;4943584;28;20158;-74
2022/05/06 04:39:04;;;;;;;4.95;4.45;;;;;;;;;;4933544;29;20167;-73
2022/05/06 04:41:33;;;;;;;4.95;4.55;;;;;;;;;;4931421;29;20054;-73
2022/05/06 04:43:59;;;;;;;4.88;4.28;;;;;;;;;;4930923;29;20038;-73
2022/05/06 04:46:29;;;;;;;5.32;4.82;;;;;;;;;;4929256;28;20117;-73
2022/05/06 04:48:55;;;;;;;6.88;5.03;;;;;;;;;;4946019;28;21126;-73
2022/05/06 04:51:22;;;;;;;5.53;5.00;;;;;;;;;;4942255;28;20027;-74
2022/05/06 04:53:48;;;;;;;5.68;4.70;;;;;;;;;;4945905;28;20075;-74
2022/05/06 04:56:13;;;;;;;5.85;5.00;;;;;;;;;;4947262;28;20073;-73
2022/05/06 04:58:41;;;;;;;5.45;4.95;;;;;;;;;;4933082;29;20122;-73
2022/05/06 05:01:13;;;;;;;;;;;;;;;;;;4934169;29;20114;-72
2022/05/06 05:03:39;;;;;;;5.75;4.90;;;;;;;;;;4924484;28;20041;-72
2022/05/06 05:06:06;;;;;;;4.93;4.47;;;;;;;;;;4924869;29;20172;-71
2022/05/06 05:08:32;;;;;;;5.10;4.60;;;;;;;;;;4939273;28;20036;-71
2022/05/06 05:11:02;;;;;;;7.40;5.63;;;;;;;;;;4942171;28;20103;-71
2022/05/06 05:13:34;;;;;;;6.22;5.20;;;;;;;;;;4941709;28;20113;-71
2022/05/06 05:16:00;;;;;;;5.68;4.45;;;;;;;;;;4939918;28;20159;-72
2022/05/06 05:18:27;;;;;;;5.43;4.80;;;;;;;;;;4934657;28;20040;-71
2022/05/06 05:20:53;;;;;;;5.63;4.85;;;;;;;;;;4935979;28;20454;-71
2022/05/06 05:23:19;;;;;;;7.07;5.43;;;;;;;;;;4936171;28;20575;-71
2022/05/06 05:25:45;;;;;;;6.22;5.63;;;;;;;;;;4935871;28;20070;-72
2022/05/06 05:28:13;;;;;;;6.45;5.38;;;;;;;;;;4936129;28;20027;-72
2022/05/06 05:30:40;;;;;;;7.50;5.65;;;;;;;;;;4939436;28;20039;-71
2022/05/06 05:33:09;;;;;;;6.30;5.15;;;;;;;;;;4921629;29;20028;-72
2022/05/06 05:35:38;;;;;;;9.00;5.88;;;;;;;;;;4937670;28;20622;-71
2022/05/06 05:38:05;;;;;;;7.78;6.68;;;;;;;;;;4938861;29;20071;-72
2022/05/06 05:40:32;;;;;;;9.23;6.95;;;;;;;;;;4938883;28;20059;-71
2022/05/06 05:42:59;;;;;;;11.98;7.53;;;;;;;;;;4938212;28;20035;-72
2022/05/06 05:48:22;;;;;;;8.88;7.00;;;;;;;;;;4938374;29;20038;-71
2022/05/06 05:50:53;;;;;;;8.70;6.90;;;;;;;;;;4939239;28;20040;-71
2022/05/06 05:53:25;;;;;;;10.10;7.50;;;;;;;;;;4940655;28;20039;-71
2022/05/06 05:55:52;;;;;;;9.50;7.75;;;;;;;;;;4938322;28;20276;-71
2022/05/06 05:58:23;;;;;;;8.57;7.18;;;;;;;;;;4938691;28;20063;-72
2022/05/06 06:00:50;;;;;;;11.23;7.55;;;;;;;;;;4938427;28;20043;-73
2022/05/06 06:03:16;;;;;;;10.43;8.30;;;;;;;;;;4945315;28;20032;-72
2022/05/06 06:05:44;;;;;;;10.43;8.15;;;;;;;;;;4925271;28;20045;-73
2022/05/06 06:08:10;;;;;;;9.98;7.95;;;;;;;;;;4941083;28;20039;-73
2022/05/06 06:10:38;;;;;;;11.85;8.90;;;;;;;;;;4941589;28;20091;-73
2022/05/06 06:13:07;;;;;;;11.02;7.85;;;;;;;;;;4932227;28;20069;-74
2022/05/06 06:15:36;;;;;;;10.40;7.78;;;;;;;;;;4944199;28;20055;-72
2022/05/06 06:18:02;;;;;;;8.88;7.38;;;;;;;;;;4928333;29;20077;-73
2022/05/06 06:20:29;;;;;;;9.88;8.18;;;;;;;;;;4940200;28;21213;-73
2022/05/06 06:22:54;;;;;;;8.82;7.90;;;;;;;;;;4938115;28;20053;-72
2022/05/06 06:25:20;;;;;;;9.13;7.43;;;;;;;;;;4941688;28;20027;-72
2022/05/06 06:27:46;;;;;;;8.80;7.35;;;;;;;;;;4926967;29;20500;-71
2022/05/06 06:30:13;;;;;;;9.38;7.38;;;;;;;;;;4938044;28;20036;-71
2022/05/06 06:32:38;;;;;;;10.25;7.68;;;;;;;;;;4925071;29;20047;-71
2022/05/06 06:35:07;;;;;;;9.38;7.95;;;;;;;;;;4946391;28;20113;-73
2022/05/06 06:37:53;;;;;;;12.43;8.02;;;;;;;;;;4933921;29;20081;-73
2022/05/06 06:40:21;;;;;;;11.55;7.90;;;;;;;;;;4940656;28;20031;-72
2022/05/06 06:42:48;;;;;;;9.38;7.68;;;;;;;;;;4944965;28;20135;-72
2022/05/06 06:45:23;;;;;;;11.65;8.15;;;;;;;;;;4947525;28;20039;-73
2022/05/06 06:47:57;;;;;;;10.48;7.53;;;;;;;;;;4930957;29;20031;-72
2022/05/06 06:50:35;;;;;;;10.93;8.70;;;;;;;;;;4944017;28;20040;-74
2022/05/06 06:53:21;;;;;;;11.77;8.70;;;;;;;;;;4923340;29;20042;-73
2022/05/06 06:55:47;;;;;;;9.73;8.15;;;;;;;;;;4922919;29;20043;-71
2022/05/06 06:58:13;;;;;;;11.88;9.27;;;;;;;;;;4929200;29;20579;-72
2022/05/06 07:00:39;;;;;;;12.20;9.05;;;;;;;;;;4931527;28;20028;-72
2022/05/06 07:03:04;;;;;;;10.90;9.10;;;;;;;;;;4923518;29;20039;-72
2022/05/06 07:05:30;;;;;;;12.85;9.73;;;;;;;;;;4923259;29;20472;-72
2022/05/06 07:13:25;;;;;;;12.57;9.80;;;;;;;;;;4923129;29;20040;-74
2022/05/06 07:15:51;;;;;;;13.82;10.55;;;;;;;;;;4924509;29;20071;-72
2022/05/06 07:18:17;;;;;;;12.52;10.68;;;;;;;;;;4931237;29;20194;-73
2022/05/06 07:20:42;;;;;;;16.23;11.05;;;;;;;;;;4930392;29;20094;-75
2022/05/06 07:23:09;;;;;;;14.15;10.63;;;;;;;;;;4931047;29;20035;-73
2022/05/06 07:25:34;;;;;;;13.73;11.45;;;;;;;;;;4929900;28;20493;-72
2022/05/06 07:28:00;;;;;;;15.63;11.73;;;;;;;;;;4923005;29;20074;-72
2022/05/06 07:30:25;;;;;;;15.98;11.52;;;;;;;;;;4923487;29;20046;-72
2022/05/06 07:32:51;;;;;;;13.00;11.48;;;;;;;;;;4922914;29;20039;-73
2022/05/06 07:35:16;;;;;;;15.52;11.30;;;;;;;;;;4922870;29;20450;-71
2022/05/06 07:37:41;;;;;;;18.45;12.25;;;;;;;;;;4923193;29;20051;-73
2022/05/06 07:40:11;;;;;;;17.98;12.38;;;;;;;;;;4931435;28;20070;-72
2022/05/06 07:42:38;;;;;;;16.05;11.98;;;;;;;;;;4922754;29;20038;-72
2022/05/06 07:45:04;;;;;;;17.98;13.05;;;;;;;;;;4930236;29;20138;-73
2022/05/06 07:47:30;;;;;;;21.50;13.25;;;;;;;;;;4927055;29;20075;-73
2022/05/06 07:49:56;;;;;;;16.33;12.23;;;;;;;;;;4944622;28;20115;-73
2022/05/06 07:52:21;;;;;;;15.15;12.07;;;;;;;;;;4923233;29;21051;-73
2022/05/06 07:54:46;;;;;;;18.80;14.25;;;;;;;;;;4925677;29;20039;-71
2022/05/06 07:57:12;;;;;;;20.40;14.10;;;;;;;;;;4927132;29;20123;-70
2022/05/06 07:59:38;;;;;;;18.60;13.73;;;;;;;;;;4933669;28;20035;-71
2022/05/06 08:04:48;;;;;;;19.17;12.98;;;;;;;;;;4939615;28;20040;-71
2022/05/06 08:07:14;;;;;;;16.60;13.48;;;;;;;;;;4927874;29;20106;-70
2022/05/06 08:09:41;;;;;;;15.40;12.95;;;;;;;;;;4926468;29;20090;-70
2022/05/06 08:12:07;;;;;;;15.85;13.57;;;;;;;;;;4926422;29;20102;-70
2022/05/06 08:14:32;;;;;;;15.80;12.40;;;;;;;;;;4931776;29;20024;-70
2022/05/06 08:16:59;;;;;;;17.00;13.93;;;;;;;;;;4924341;29;20401;-72
2022/05/06 08:19:26;;;;;;;18.00;13.15;;;;;;;;;;4925846;29;20031;-73
2022/05/06 08:21:52;;;;;;;15.85;13.07;;;;;;;;;;4930597;29;20481;-72
2022/05/06 08:24:19;;;;;;;16.50;13.65;;;;;;;;;;4925017;29;20082;-71
2022/05/06 08:26:46;;;;;;;18.35;15.02;;;;;;;;;;4930950;29;20050;-70
2022/05/06 08:29:11;;;;;;;19.00;14.32;;;;;;;;;;4925990;29;20150;-71
2022/05/06 08:31:40;;;;;;;18.30;13.68;;;;;;;;;;4924717;29;20036;-71
2022/05/06 08:34:07;;;;;;;19.10;14.48;;;;;;;;;;4925428;29;20059;-70
2022/05/06 08:36:37;;;;;;;19.45;15.00;;;;;;;;;;4932451;29;20061;-69
2022/05/06 08:39:04;;;;;;;17.38;13.70;;;;;;;;;;4934200;28;20583;-71
2022/05/06 08:41:30;;;;;;;21.33;14.65;;;;;;;;;;4928648;29;20036;-71
2022/05/06 08:43:57;;;;;;;19.77;13.85;;;;;;;;;;4933177;29;20035;-70
2022/05/06 08:51:56;;;;;;;24.02;16.20;;;;;;;;;;4927373;28;20074;-70
2022/05/06 08:54:22;;;;;;;18.15;14.20;;;;;;;;;;4940101;29;20652;-70
2022/05/06 08:56:48;;;;;;;18.30;15.07;;;;;;;;;;4929508;29;20058;-71
2022/05/06 08:59:13;;;;;;;20.00;14.45;;;;;;;;;;4932403;28;20047;-73
2022/05/06 09:01:38;;;;;;;20.05;14.98;;;;;;;;;;4927583;29;20110;-70
2022/05/06 09:04:05;;;;;;;17.02;13.85;;;;;;;;;;4927260;29;20027;-71
2022/05/06 09:06:32;;;;;;;18.23;14.73;;;;;;;;;;4931794;29;20035;-71
2022/05/06 09:08:59;;;;;;;19.05;14.48;;;;;;;;;;4926520;28;20067;-69
2022/05/06 09:16:39;;;;;;;21.77;15.43;;;;;;;;;;4928184;29;20031;-70
2022/05/06 09:17:24;;;;;;;19.73;13.88;;;;;;;;;;4932293;29;20091;-71
2022/05/06 09:19:49;;;;;;;23.27;14.80;;;;;;;;;;4936708;28;20039;-70
2022/05/06 09:22:15;;;;;;;20.55;14.25;;;;;;;;;;4929900;29;20045;-70
2022/05/06 09:24:42;;;;;;;19.27;15.07;;;;;;;;;;4931492;28;20035;-70
2022/05/06 09:27:12;;;;;;;20.05;15.07;;;;;;;;;;4930368;29;20040;-70
2022/05/06 09:29:43;;;;;;;18.63;14.05;;;;;;;;;;4930214;29;20051;-71
2022/05/06 09:32:19;;;;;;;16.17;13.77;;;;;;;;;;4930683;29;20034;-71
2022/05/06 09:34:48;;;;;;;20.98;15.77;;;;;;;;;;4929704;29;20057;-70
2022/05/06 09:37:28;;;;;;;20.50;13.98;;;;;;;;;;4924166;29;20999;-71
2022/05/06 09:40:14;;;;;;;15.23;13.10;;;;;;;;;;4933474;28;20039;-71
2022/05/06 09:42:45;;;;;;;17.98;13.10;;;;;;;;;;4941203;29;20134;-72
2022/05/06 09:45:27;;;;;;;18.08;13.13;;;;;;;;;;4928324;29;20038;-71
2022/05/06 09:47:58;;;;;;;15.00;12.60;;;;;;;;;;4924347;29;20045;-73
2022/05/06 09:50:39;;;;;;;15.13;12.43;;;;;;;;;;4924625;29;20043;-73
2022/05/06 09:53:07;;;;;;;15.75;12.85;;;;;;;;;;4924491;29;20027;-73
2022/05/06 09:55:35;;;;;;;16.77;13.38;;;;;;;;;;4927897;28;20857;-73
2022/05/06 09:58:01;;;;;;;18.02;12.77;;;;;;;;;;4925504;29;20066;-72
2022/05/06 10:00:27;;;;;;;17.15;14.40;;;;;;;;;;4924157;29;20065;-72
2022/05/06 10:02:53;;;;;;;16.15;13.10;;;;;;;;;;4924142;29;20035;-73
2022/05/06 10:05:19;;;;;;;16.65;13.75;;;;;;;;;;4932320;29;20057;-72
2022/05/06 10:07:44;;;;;;;16.88;12.60;;;;;;;;;;4936675;28;20045;-72
2022/05/06 10:10:17;;;;;;;15.27;13.05;;;;;;;;;;4933066;28;20032;-72
2022/05/06 10:12:57;;;;;;;16.27;13.90;;;;;;;;;;4937172;29;20475;-72
2022/05/06 10:15:25;;;;;;;16.73;12.80;;;;;;;;;;4924045;29;20031;-71
2022/05/06 10:17:59;;;;;;;16.33;12.27;;;;;;;;;;4931473;28;20047;-72
2022/05/06 10:20:37;;;;;;;15.57;12.38;;;;;;;;;;4929702;29;20039;-72
2022/05/06 10:23:08;;;;;;;15.35;12.27;;;;;;;;;;4933584;28;20556;-72
2022/05/06 10:25:42;;;;;;;16.15;12.63;;;;;;;;;;4926267;28;20037;-72
2022/05/06 10:34:13;;;;;;;16.33;12.32;;;;;;;;;;4923577;29;20027;-73
2022/05/06 10:36:45;;;;;;;17.77;12.63;;;;;;;;;;4920792;29;20154;-73
2022/05/06 10:39:35;;;;;;;24.23;13.67;;;;;;;;;;4925993;28;20043;-72
2022/05/06 10:42:10;;;;;;;17.40;14.30;;;;;;;;;;4926348;29;20287;-72
2022/05/06 10:44:45;;;;;;;17.77;14.27;;;;;;;;;;4928426;28;20180;-72
2022/05/06 10:47:16;;;;;;;18.40;13.60;;;;;;;;;;4925144;29;20449;-73
2022/05/06 10:49:43;;;;;;;17.75;14.23;;;;;;;;;;4926540;29;20087;-73
2022/05/06 10:52:25;;;;;;;19.55;14.45;;;;;;;;;;4930902;29;20043;-73
2022/05/06 10:54:55;;;;;;;22.45;14.00;;;;;;;;;;4947196;28;20412;-72
2022/05/06 10:57:25;;;;;;;18.85;14.30;;;;;;;;;;4922942;29;20171;-73
2022/05/06 10:59:57;;;;;;;15.52;13.52;;;;;;;;;;4933691;28;20046;-71
2022/05/06 11:02:25;;;;;;;17.83;14.27;;;;;;;;;;4930656;29;20094;-72
2022/05/06 11:04:56;;;;;;;19.55;14.65;;;;;;;;;;4923302;29;20028;-73
2022/05/06 11:07:22;;;;;;;15.20;12.20;;;;;;;;;;4922806;29;20035;-73
2022/05/06 11:09:48;;;;;;;13.45;11.65;;;;;;;;;;4923637;29;20028;-72
2022/05/06 11:12:33;;;;;;;18.30;12.70;;;;;;;;;;4930128;29;20531;-73
2022/05/06 11:15:03;;;;;;;15.50;12.32;;;;;;;;;;4925840;29;20477;-74
2022/05/06 11:17:31;;;;;;;17.45;11.32;;;;;;;;;;4932884;29;20039;-72
2022/05/06 11:19:57;;;;;;;17.75;12.27;;;;;;;;;;4924901;28;20028;-70
2022/05/06 11:22:24;;;;;;;14.95;12.80;;;;;;;;;;4924624;29;20901;-71
2022/05/06 11:24:54;;;;;;;15.73;10.35;;;;;;;;;;4925415;28;20043;-72
2022/05/06 11:27:20;;;;;;;15.20;11.38;;;;;;;;;;4926295;29;20046;-70
2022/05/06 11:29:55;;;;;;;21.58;11.57;;;;;;;;;;4932750;28;20035;-70
2022/05/06 11:32:27;;;;;;;12.68;10.68;;;;;;;;;;4932001;29;20496;-71
2022/05/06 11:34:59;;;;;;;11.63;10.38;;;;;;;;;;4928732;29;20043;-72
2022/05/06 11:37:27;;;;;;;12.30;10.57;;;;;;;;;;4925838;29;20044;-72
2022/05/06 11:40:18;;;;;;;11.95;9.30;;;;;;;;;;4927371;29;20999;-74
2022/05/06 11:42:39;;;;;;;11.55;9.30;;;;;;;;;;4927213;29;20127;-72
2022/05/06 11:47:50;;;;;;;15.07;9.57;;;;;;;;;;4940186;28;20039;-74
2022/05/06 11:50:15;;;;;;;11.88;10.23;;;;;;;;;;4952275;28;20036;-74
2022/05/06 11:52:44;;;;;;;12.32;10.57;;;;;;;;;;4930213;29;20044;-73
2022/05/06 11:55:10;;;;;;;13.68;10.65;;;;;;;;;;4926076;29;20488;-74
2022/05/06 11:57:38;;;;;;;18.00;11.30;;;;;;;;;;4935917;29;20070;-71
2022/05/06 12:00:05;;;;;;;12.82;10.70;;;;;;;;;;4926783;28;20027;-76
2022/05/06 12:02:49;;;;;;;13.65;10.77;;;;;;;;;;4939543;29;20497;-72
2022/05/06 12:05:15;;;;;;;13.18;10.55;;;;;;;;;;4944369;28;20027;-71
2022/05/06 12:07:41;;;;;;;12.30;9.90;;;;;;;;;;4934974;28;20794;-72
2022/05/06 12:10:08;;;;;;;11.75;9.38;;;;;;;;;;4940522;28;20040;-75
2022/05/06 12:12:33;;;;;;;11.18;9.65;;;;;;;;;;4926093;29;20051;-73
2022/05/06 12:15:32;;;;;;;11.07;9.80;;;;;;;;;;4925728;29;20043;-71
2022/05/06 12:18:03;;;;;;;12.90;9.07;;;;;;;;;;4925707;29;20098;-72
2022/05/06 12:20:30;;;;;;;14.15;11.43;;;;;;;;;;4931761;29;20031;-74
2022/05/06 12:22:58;;;;;;;13.52;11.23;;;;;;;;;;4930149;28;20579;-74
2022/05/06 12:25:24;;;;;;;15.18;11.05;;;;;;;;;;4933148;29;20035;-71
2022/05/06 12:28:03;;;;;;;15.82;11.32;;;;;;;;;;4931627;28;20090;-71
2022/05/06 12:30:29;;;;;;;15.35;11.07;;;;;;;;;;4928201;29;20039;-72
2022/05/06 12:33:10;;;;;;;15.77;10.50;;;;;;;;;;4925335;29;20031;-70
2022/05/06 12:36:04;;;;;;;12.50;10.07;;;;;;;;;;4931731;29;20032;-72
2022/05/06 12:38:39;;;;;;;13.35;11.80;;;;;;;;;;4932342;28;20045;-71
2022/05/06 12:41:19;;;;;;;15.00;11.02;;;;;;;;;;4929164;29;20035;-71
2022/05/06 12:43:46;;;;;;;12.82;10.65;;;;;;;;;;4928136;29;20050;-71
2022/05/06 12:46:25;;;;;;;13.82;10.77;;;;;;;;;;4928452;29;20101;-70
2022/05/06 12:51:34;;;;;;;15.45;11.57;;;;;;;;;;4928494;29;20409;-72
2022/05/06 12:53:59;;;;;;;14.80;10.43;;;;;;;;;;4926747;29;20031;-71
2022/05/06 12:56:26;;;;;;;15.40;11.35;;;;;;;;;;4924835;29;20157;-71
2022/05/06 12:58:51;;;;;;;15.30;11.68;;;;;;;;;;4928118;29;20074;-71
2022/05/06 13:01:17;;;;;;;17.33;12.25;;;;;;;;;;4925797;29;20081;-72
2022/05/06 13:03:43;;;;;;;16.38;12.77;;;;;;;;;;4933865;29;20051;-71
2022/05/06 13:06:08;;;;;;;18.23;13.07;;;;;;;;;;4924938;29;21036;-70
2022/05/06 13:08:34;;;;;;;18.25;13.05;;;;;;;;;;4932891;29;20043;-71
2022/05/06 13:10:59;;;;;;;17.95;13.50;;;;;;;;;;4925404;29;20051;-70
2022/05/06 13:13:24;;;;;;;18.02;12.80;;;;;;;;;;4928249;29;20118;-70
2022/05/06 13:15:50;;;;;;;16.90;12.25;;;;;;;;;;4924219;29;20102;-71
2022/05/06 13:18:15;;;;;;;21.45;12.80;;;;;;;;;;4924688;29;20083;-70
2022/05/06 13:20:41;;;;;;;16.70;12.43;;;;;;;;;;4925801;29;20146;-72
2022/05/06 13:23:06;;;;;;;16.45;13.00;;;;;;;;;;4938618;28;20405;-71
2022/05/06 13:25:32;;;;;;;22.50;12.68;;;;;;;;;;4924328;29;20910;-71
2022/05/06 13:27:57;;;;;;;23.23;12.98;;;;;;;;;;4924753;29;20913;-72
2022/05/06 13:30:23;;;;;;;20.70;14.73;;;;;;;;;;4924862;29;20055;-72
2022/05/06 13:32:48;;;;;;;26.88;15.95;;;;;;;;;;4924723;29;20170;-72
2022/05/06 13:35:14;;;;;;;26.52;14.88;;;;;;;;;;4932011;29;20046;-71
2022/05/06 13:37:39;;;;;;;41.00;20.77;;;;;;;;;;4932997;28;20051;-71
2022/05/06 13:40:06;;;;;;;18.25;13.68;;;;;;;;;;4928523;29;20035;-71
2022/05/06 13:42:31;;;;;;;25.42;14.45;;;;;;;;;;4931261;28;20055;-72
2022/05/06 13:44:57;;;;;;;16.40;12.23;;;;;;;;;;4931038;29;20039;-72
2022/05/06 13:47:22;;;;;;;19.08;12.45;;;;;;;;;;4931234;29;20127;-71
2022/05/06 13:49:49;;;;;;;18.02;11.63;;;;;;;;;;4924403;28;20448;-71
2022/05/06 13:52:14;;;;;;;16.55;12.60;;;;;;;;;;4922688;29;20036;-71
2022/05/06 13:54:40;;;;;;;16.55;12.18;;;;;;;;;;4923644;29;20126;-70
2022/05/06 13:59:49;;;;;;;20.25;12.35;;;;;;;;;;4931187;29;20117;-71
2022/05/06 14:02:15;;;;;;;16.05;12.10;;;;;;;;;;4930953;28;20151;-71
2022/05/06 14:04:41;;;;;;;15.13;11.80;;;;;;;;;;4931501;29;20035;-72
2022/05/06 14:07:06;;;;;;;18.17;11.70;;;;;;;;;;4929506;29;20500;-72
2022/05/06 14:09:33;;;;;;;14.18;11.43;;;;;;;;;;4938024;28;20047;-72
2022/05/06 14:11:59;;;;;;;15.65;11.30;;;;;;;;;;4925722;29;20082;-72
2022/05/06 14:14:25;;;;;;;14.32;11.70;;;;;;;;;;4922750;29;20122;-72
2022/05/06 14:16:50;;;;;;;12.95;10.93;;;;;;;;;;4924784;29;20050;-70
2022/05/06 14:19:15;;;;;;;15.30;10.65;;;;;;;;;;4931553;28;20035;-70
2022/05/06 14:21:41;;;;;;;19.15;10.45;;;;;;;;;;4925491;29;20031;-70
2022/05/06 14:24:09;;;;;;;13.63;10.70;;;;;;;;;;4946058;28;20507;-70
2022/05/06 14:26:35;;;;;;;15.65;11.02;;;;;;;;;;4936472;29;20656;-72
2022/05/06 14:29:01;;;;;;;13.27;10.18;;;;;;;;;;4923320;28;20043;-70
2022/05/06 14:31:26;;;;;;;14.30;11.05;;;;;;;;;;4928669;28;20122;-72
2022/05/06 14:33:52;;;;;;;14.77;10.32;;;;;;;;;;4924264;29;20075;-72
2022/05/06 14:36:19;;;;;;;15.13;10.27;;;;;;;;;;4922053;29;20034;-72
2022/05/06 14:38:45;;;;;;;16.40;10.52;;;;;;;;;;4926792;28;20051;-72
2022/05/06 14:41:11;;;;;;;14.75;10.27;;;;;;;;;;4923749;29;20039;-71
2022/05/06 14:43:36;;;;;;;15.00;10.40;;;;;;;;;;4923284;29;20051;-72
2022/05/06 14:46:02;;;;;;;13.98;10.07;;;;;;;;;;4930288;29;20036;-72
2022/05/06 14:48:27;;;;;;;12.20;10.13;;;;;;;;;;4923297;29;20047;-70
2022/05/06 14:50:52;;;;;;;13.43;10.32;;;;;;;;;;4923403;29;20047;-71
2022/05/06 14:53:18;;;;;;;12.63;10.93;;;;;;;;;;4923572;29;20043;-73
2022/05/06 14:55:43;;;;;;;17.77;10.30;;;;;;;;;;4921770;29;20498;-72
2022/05/06 14:58:09;;;;;;;11.85;9.98;;;;;;;;;;4922333;28;20507;-72
2022/05/06 15:00:35;;;;;;;14.05;10.90;;;;;;;;;;4940227;28;20073;-71
2022/05/06 15:03:00;;;;;;;14.13;11.23;;;;;;;;;;4925812;29;20515;-73
2022/05/06 15:09:18;;;;;;;19.38;10.70;;;;;;;;;;4927758;29;20130;-71
2022/05/06 15:11:44;;;;;;;15.95;11.48;;;;;;;;;;4930441;28;20135;-72
2022/05/06 15:14:09;;;;;;;15.15;10.57;;;;;;;;;;4929600;29;20065;-72
2022/05/06 15:16:34;;;;;;;13.93;10.60;;;;;;;;;;4930751;28;20031;-72
2022/05/06 15:21:44;;;;;;;15.45;10.85;;;;;;;;;;4930516;29;20135;-71
2022/05/06 15:24:10;;;;;;;14.15;11.13;;;;;;;;;;4942932;28;20027;-71
2022/05/06 15:26:35;;;;;;;18.45;12.98;;;;;;;;;;4930262;28;20058;-72